sensor_id;sensor_type;location;lat;lon;timestamp;temperature;humidity
64715;DHT22;51144;53.002;6.506;2022-10-16T00:01:20;12.10;99.90
64715;DHT22;51144;53.002;6.506;2022-10-16T00:03:46;12.10;99.90
64715;DHT22;51144;53.002;6.506;2022-10-16T00:06:13;12.10;99.90
64715;DHT22;51144;53.002;6.506;2022-10-16T00:08:40;12.10;99.90
64715;DHT22;51144;53.002;6.506;2022-10-16T00:11:12;12.10;99.90
64715;DHT22;51144;53.002;6.506;2022-10-16T00:13:40;12.10;99.90
64715;DHT22;51144;53.002;6.506;2022-10-16T00:16:06;12.10;99.90
64715;DHT22;51144;53.002;6.506;2022-10-16T00:18:32;12.10;99.90
64715;DHT22;51144;53.002;6.506;2022-10-16T00:21:06;12.10;99.90
64715;DHT22;51144;53.002;6.506;2022-10-16T00:23:32;12.10;99.90
64715;DHT22;51144;53.002;6.506;2022-10-16T00:26:00;12.10;99.90
64715;DHT22;51144;53.002;6.506;2022-10-16T00:28:26;12.10;99.90
64715;DHT22;51144;53.002;6.506;2022-10-16T00:30:52;12.10;99.90
64715;DHT22;51144;53.002;6.506;2022-10-16T00:33:18;12.20;99.90
64715;DHT22;51144;53.002;6.506;2022-10-16T00:35:44;12.20;99.90
64715;DHT22;51144;53.002;6.506;2022-10-16T00:38:09;12.20;99.90
64715;DHT22;51144;53.002;6.506;2022-10-16T00:40:35;12.20;99.90
64715;DHT22;51144;53.002;6.506;2022-10-16T00:43:01;12.20;99.90
64715;DHT22;51144;53.002;6.506;2022-10-16T00:45:26;12.30;99.90
64715;DHT22;51144;53.002;6.506;2022-10-16T00:47:54;12.30;99.90
64715;DHT22;51144;53.002;6.506;2022-10-16T00:50:27;12.30;99.90
64715;DHT22;51144;53.002;6.506;2022-10-16T00:52:54;12.30;99.90
64715;DHT22;51144;53.002;6.506;2022-10-16T00:55:21;12.40;99.90
64715;DHT22;51144;53.002;6.506;2022-10-16T00:57:47;12.40;99.90
64715;DHT22;51144;53.002;6.506;2022-10-16T01:00:17;12.40;99.90
64715;DHT22;51144;53.002;6.506;2022-10-16T01:02:43;12.40;99.90
64715;DHT22;51144;53.002;6.506;2022-10-16T01:05:09;12.40;99.90
64715;DHT22;51144;53.002;6.506;2022-10-16T01:07:56;12.40;99.90
64715;DHT22;51144;53.002;6.506;2022-10-16T01:10:39;12.40;99.90
64715;DHT22;51144;53.002;6.506;2022-10-16T01:13:11;12.40;99.90
64715;DHT22;51144;53.002;6.506;2022-10-16T01:20:49;12.40;99.90
64715;DHT22;51144;53.002;6.506;2022-10-16T01:23:34;12.50;99.90
64715;DHT22;51144;53.002;6.506;2022-10-16T01:26:17;12.50;99.90
64715;DHT22;51144;53.002;6.506;2022-10-16T01:28:47;12.50;99.90
64715;DHT22;51144;53.002;6.506;2022-10-16T01:31:17;12.50;99.90
64715;DHT22;51144;53.002;6.506;2022-10-16T01:33:47;12.50;99.90
64715;DHT22;51144;53.002;6.506;2022-10-16T01:36:18;12.60;99.90
64715;DHT22;51144;53.002;6.506;2022-10-16T01:38:48;12.60;99.90
64715;DHT22;51144;53.002;6.506;2022-10-16T01:41:19;12.60;99.90
64715;DHT22;51144;53.002;6.506;2022-10-16T01:43:49;12.60;99.90
64715;DHT22;51144;53.002;6.506;2022-10-16T01:46:18;12.60;99.90
64715;DHT22;51144;53.002;6.506;2022-10-16T01:48:46;12.60;99.90
64715;DHT22;51144;53.002;6.506;2022-10-16T01:51:13;12.60;99.90
64715;DHT22;51144;53.002;6.506;2022-10-16T01:53:40;12.60;99.90
64715;DHT22;51144;53.002;6.506;2022-10-16T01:56:10;12.60;99.90
64715;DHT22;51144;53.002;6.506;2022-10-16T01:58:51;12.60;99.90
64715;DHT22;51144;53.002;6.506;2022-10-16T02:01:19;12.60;99.90
64715;DHT22;51144;53.002;6.506;2022-10-16T02:03:47;12.60;99.90
64715;DHT22;51144;53.002;6.506;2022-10-16T02:06:14;12.60;99.90
64715;DHT22;51144;53.002;6.506;2022-10-16T02:08:39;12.60;99.90
64715;DHT22;51144;53.002;6.506;2022-10-16T02:11:09;12.60;99.90
64715;DHT22;51144;53.002;6.506;2022-10-16T02:13:54;12.60;99.90
64715;DHT22;51144;53.002;6.506;2022-10-16T02:16:22;12.60;99.90
64715;DHT22;51144;53.002;6.506;2022-10-16T02:18:48;12.60;99.90
64715;DHT22;51144;53.002;6.506;2022-10-16T02:21:22;12.60;99.90
64715;DHT22;51144;53.002;6.506;2022-10-16T02:26:46;12.60;99.90
64715;DHT22;51144;53.002;6.506;2022-10-16T02:29:16;12.70;99.90
64715;DHT22;51144;53.002;6.506;2022-10-16T02:31:46;12.70;99.90
64715;DHT22;51144;53.002;6.506;2022-10-16T02:34:16;12.70;99.90
64715;DHT22;51144;53.002;6.506;2022-10-16T02:36:43;12.70;99.90
64715;DHT22;51144;53.002;6.506;2022-10-16T02:39:10;12.70;99.90
64715;DHT22;51144;53.002;6.506;2022-10-16T02:41:36;12.70;99.90
64715;DHT22;51144;53.002;6.506;2022-10-16T02:44:02;12.70;99.90
64715;DHT22;51144;53.002;6.506;2022-10-16T02:46:27;12.70;99.90
64715;DHT22;51144;53.002;6.506;2022-10-16T02:48:53;12.70;99.90
64715;DHT22;51144;53.002;6.506;2022-10-16T02:51:18;12.60;99.90
64715;DHT22;51144;53.002;6.506;2022-10-16T02:53:44;12.70;99.90
64715;DHT22;51144;53.002;6.506;2022-10-16T02:56:10;12.70;99.90
64715;DHT22;51144;53.002;6.506;2022-10-16T02:58:35;12.70;99.90
64715;DHT22;51144;53.002;6.506;2022-10-16T03:01:01;12.70;99.90
64715;DHT22;51144;53.002;6.506;2022-10-16T03:03:27;12.70;99.90
64715;DHT22;51144;53.002;6.506;2022-10-16T03:05:52;12.70;99.90
64715;DHT22;51144;53.002;6.506;2022-10-16T03:08:18;12.70;99.90
64715;DHT22;51144;53.002;6.506;2022-10-16T03:10:49;12.70;99.90
64715;DHT22;51144;53.002;6.506;2022-10-16T03:13:14;12.70;99.90
64715;DHT22;51144;53.002;6.506;2022-10-16T03:15:40;12.70;99.90
64715;DHT22;51144;53.002;6.506;2022-10-16T03:18:06;12.70;99.90
64715;DHT22;51144;53.002;6.506;2022-10-16T03:20:31;12.70;99.90
64715;DHT22;51144;53.002;6.506;2022-10-16T03:22:57;12.60;99.90
64715;DHT22;51144;53.002;6.506;2022-10-16T03:25:23;12.60;99.90
64715;DHT22;51144;53.002;6.506;2022-10-16T03:27:48;12.60;99.90
64715;DHT22;51144;53.002;6.506;2022-10-16T03:30:14;12.60;99.90
64715;DHT22;51144;53.002;6.506;2022-10-16T03:32:39;12.60;99.90
64715;DHT22;51144;53.002;6.506;2022-10-16T03:35:05;12.60;99.90
64715;DHT22;51144;53.002;6.506;2022-10-16T03:37:31;12.60;99.90
64715;DHT22;51144;53.002;6.506;2022-10-16T03:39:56;12.60;99.90
64715;DHT22;51144;53.002;6.506;2022-10-16T03:42:22;12.60;99.90
64715;DHT22;51144;53.002;6.506;2022-10-16T03:44:48;12.60;99.90
64715;DHT22;51144;53.002;6.506;2022-10-16T03:47:13;12.60;99.90
64715;DHT22;51144;53.002;6.506;2022-10-16T03:49:39;12.60;99.90
64715;DHT22;51144;53.002;6.506;2022-10-16T03:52:04;12.60;99.90
64715;DHT22;51144;53.002;6.506;2022-10-16T03:54:30;12.60;99.90
64715;DHT22;51144;53.002;6.506;2022-10-16T03:56:56;12.60;99.90
64715;DHT22;51144;53.002;6.506;2022-10-16T03:59:21;12.50;99.90
64715;DHT22;51144;53.002;6.506;2022-10-16T04:01:47;12.50;99.90
64715;DHT22;51144;53.002;6.506;2022-10-16T04:04:12;12.50;99.90
64715;DHT22;51144;53.002;6.506;2022-10-16T04:06:38;12.50;99.90
64715;DHT22;51144;53.002;6.506;2022-10-16T04:09:03;12.50;99.90
64715;DHT22;51144;53.002;6.506;2022-10-16T04:11:29;12.50;99.90
64715;DHT22;51144;53.002;6.506;2022-10-16T04:13:55;12.50;99.90
64715;DHT22;51144;53.002;6.506;2022-10-16T04:16:20;12.50;99.90
64715;DHT22;51144;53.002;6.506;2022-10-16T04:18:46;12.60;99.90
64715;DHT22;51144;53.002;6.506;2022-10-16T04:21:11;12.60;99.90
64715;DHT22;51144;53.002;6.506;2022-10-16T04:23:37;12.50;99.90
64715;DHT22;51144;53.002;6.506;2022-10-16T04:26:03;12.50;99.90
64715;DHT22;51144;53.002;6.506;2022-10-16T04:28:29;12.50;99.90
64715;DHT22;51144;53.002;6.506;2022-10-16T04:30:54;12.50;99.90
64715;DHT22;51144;53.002;6.506;2022-10-16T04:33:20;12.50;99.90
64715;DHT22;51144;53.002;6.506;2022-10-16T04:35:46;12.40;99.90
64715;DHT22;51144;53.002;6.506;2022-10-16T04:38:12;12.40;99.90
64715;DHT22;51144;53.002;6.506;2022-10-16T04:40:38;12.40;99.90
64715;DHT22;51144;53.002;6.506;2022-10-16T04:43:04;12.40;99.90
64715;DHT22;51144;53.002;6.506;2022-10-16T04:45:30;12.40;99.90
64715;DHT22;51144;53.002;6.506;2022-10-16T04:47:59;12.40;99.90
64715;DHT22;51144;53.002;6.506;2022-10-16T04:50:25;12.40;99.90
64715;DHT22;51144;53.002;6.506;2022-10-16T04:52:51;12.40;99.90
64715;DHT22;51144;53.002;6.506;2022-10-16T04:55:16;12.40;99.90
64715;DHT22;51144;53.002;6.506;2022-10-16T04:57:42;12.40;99.90
64715;DHT22;51144;53.002;6.506;2022-10-16T05:00:08;12.50;99.90
64715;DHT22;51144;53.002;6.506;2022-10-16T05:02:34;12.50;99.90
64715;DHT22;51144;53.002;6.506;2022-10-16T05:05:00;12.50;99.90
64715;DHT22;51144;53.002;6.506;2022-10-16T05:07:25;12.50;99.90
64715;DHT22;51144;53.002;6.506;2022-10-16T05:09:51;12.60;99.90
64715;DHT22;51144;53.002;6.506;2022-10-16T05:12:17;12.60;99.90
64715;DHT22;51144;53.002;6.506;2022-10-16T05:14:42;12.50;99.90
64715;DHT22;51144;53.002;6.506;2022-10-16T05:17:08;12.50;99.90
64715;DHT22;51144;53.002;6.506;2022-10-16T05:19:33;12.50;99.90
64715;DHT22;51144;53.002;6.506;2022-10-16T05:21:59;12.50;99.90
64715;DHT22;51144;53.002;6.506;2022-10-16T05:24:25;12.50;99.90
64715;DHT22;51144;53.002;6.506;2022-10-16T05:26:51;12.50;99.90
64715;DHT22;51144;53.002;6.506;2022-10-16T05:29:16;12.60;99.90
64715;DHT22;51144;53.002;6.506;2022-10-16T05:31:42;12.60;99.90
64715;DHT22;51144;53.002;6.506;2022-10-16T05:34:08;12.60;99.90
64715;DHT22;51144;53.002;6.506;2022-10-16T05:36:33;12.60;99.90
64715;DHT22;51144;53.002;6.506;2022-10-16T05:38:59;12.60;99.90
64715;DHT22;51144;53.002;6.506;2022-10-16T05:41:24;12.60;99.90
64715;DHT22;51144;53.002;6.506;2022-10-16T05:43:52;12.60;99.90
64715;DHT22;51144;53.002;6.506;2022-10-16T05:46:18;12.60;99.90
64715;DHT22;51144;53.002;6.506;2022-10-16T05:48:43;12.60;99.90
64715;DHT22;51144;53.002;6.506;2022-10-16T05:51:11;12.60;99.90
64715;DHT22;51144;53.002;6.506;2022-10-16T05:53:38;12.60;99.90
64715;DHT22;51144;53.002;6.506;2022-10-16T05:56:05;12.60;99.90
64715;DHT22;51144;53.002;6.506;2022-10-16T05:58:33;12.60;99.90
64715;DHT22;51144;53.002;6.506;2022-10-16T06:01:14;12.60;99.90
64715;DHT22;51144;53.002;6.506;2022-10-16T06:03:39;12.60;99.90
64715;DHT22;51144;53.002;6.506;2022-10-16T06:06:14;12.60;99.90
64715;DHT22;51144;53.002;6.506;2022-10-16T06:08:40;12.60;99.90
64715;DHT22;51144;53.002;6.506;2022-10-16T06:11:09;12.60;99.90
64715;DHT22;51144;53.002;6.506;2022-10-16T06:13:35;12.70;99.90
64715;DHT22;51144;53.002;6.506;2022-10-16T06:16:01;12.70;99.90
64715;DHT22;51144;53.002;6.506;2022-10-16T06:18:28;12.70;99.90
64715;DHT22;51144;53.002;6.506;2022-10-16T06:20:55;12.70;99.90
64715;DHT22;51144;53.002;6.506;2022-10-16T06:23:20;12.70;99.90
64715;DHT22;51144;53.002;6.506;2022-10-16T06:25:46;12.70;99.90
64715;DHT22;51144;53.002;6.506;2022-10-16T06:28:13;12.70;99.90
64715;DHT22;51144;53.002;6.506;2022-10-16T06:30:39;12.70;99.90
64715;DHT22;51144;53.002;6.506;2022-10-16T06:33:05;12.70;99.90
64715;DHT22;51144;53.002;6.506;2022-10-16T06:35:30;12.70;99.90
64715;DHT22;51144;53.002;6.506;2022-10-16T06:37:57;12.70;99.90
64715;DHT22;51144;53.002;6.506;2022-10-16T06:40:23;12.80;99.90
64715;DHT22;51144;53.002;6.506;2022-10-16T06:42:48;12.80;99.90
64715;DHT22;51144;53.002;6.506;2022-10-16T06:45:14;12.80;99.90
64715;DHT22;51144;53.002;6.506;2022-10-16T06:47:40;12.90;99.90
64715;DHT22;51144;53.002;6.506;2022-10-16T06:50:06;12.90;99.90
64715;DHT22;51144;53.002;6.506;2022-10-16T06:52:34;12.90;99.90
64715;DHT22;51144;53.002;6.506;2022-10-16T06:54:59;12.90;99.90
64715;DHT22;51144;53.002;6.506;2022-10-16T06:57:25;12.90;99.90
64715;DHT22;51144;53.002;6.506;2022-10-16T06:59:51;12.90;99.90
64715;DHT22;51144;53.002;6.506;2022-10-16T07:02:16;12.90;99.90
64715;DHT22;51144;53.002;6.506;2022-10-16T07:04:42;12.90;99.90
64715;DHT22;51144;53.002;6.506;2022-10-16T07:07:07;12.90;99.90
64715;DHT22;51144;53.002;6.506;2022-10-16T07:09:33;12.90;99.90
64715;DHT22;51144;53.002;6.506;2022-10-16T07:11:59;13.00;99.90
64715;DHT22;51144;53.002;6.506;2022-10-16T07:14:24;13.00;99.90
64715;DHT22;51144;53.002;6.506;2022-10-16T07:16:50;13.00;99.90
64715;DHT22;51144;53.002;6.506;2022-10-16T07:19:16;13.10;99.90
64715;DHT22;51144;53.002;6.506;2022-10-16T07:21:43;13.20;99.90
64715;DHT22;51144;53.002;6.506;2022-10-16T07:24:15;13.10;99.90
64715;DHT22;51144;53.002;6.506;2022-10-16T07:26:43;13.20;99.90
64715;DHT22;51144;53.002;6.506;2022-10-16T07:29:20;13.20;99.90
64715;DHT22;51144;53.002;6.506;2022-10-16T07:31:46;13.20;99.90
64715;DHT22;51144;53.002;6.506;2022-10-16T07:34:14;13.30;99.90
64715;DHT22;51144;53.002;6.506;2022-10-16T07:36:40;13.30;99.90
64715;DHT22;51144;53.002;6.506;2022-10-16T07:39:06;13.20;99.90
64715;DHT22;51144;53.002;6.506;2022-10-16T07:41:31;13.20;99.90
64715;DHT22;51144;53.002;6.506;2022-10-16T07:43:58;13.30;99.90
64715;DHT22;51144;53.002;6.506;2022-10-16T07:46:26;13.30;99.90
64715;DHT22;51144;53.002;6.506;2022-10-16T07:48:52;13.40;99.90
64715;DHT22;51144;53.002;6.506;2022-10-16T07:51:20;13.40;99.90
64715;DHT22;51144;53.002;6.506;2022-10-16T07:53:46;13.50;99.90
64715;DHT22;51144;53.002;6.506;2022-10-16T07:56:12;13.60;99.90
64715;DHT22;51144;53.002;6.506;2022-10-16T07:58:39;13.90;99.90
64715;DHT22;51144;53.002;6.506;2022-10-16T08:01:08;14.20;99.90
64715;DHT22;51144;53.002;6.506;2022-10-16T08:03:34;14.50;99.90
64715;DHT22;51144;53.002;6.506;2022-10-16T08:06:01;14.50;99.90
64715;DHT22;51144;53.002;6.506;2022-10-16T08:08:27;14.50;99.90
64715;DHT22;51144;53.002;6.506;2022-10-16T08:10:53;14.40;99.90
64715;DHT22;51144;53.002;6.506;2022-10-16T08:13:19;14.40;99.90
64715;DHT22;51144;53.002;6.506;2022-10-16T08:15:45;14.40;99.90
64715;DHT22;51144;53.002;6.506;2022-10-16T08:18:13;14.40;99.90
64715;DHT22;51144;53.002;6.506;2022-10-16T08:20:40;14.50;99.90
64715;DHT22;51144;53.002;6.506;2022-10-16T08:23:06;14.50;99.90
64715;DHT22;51144;53.002;6.506;2022-10-16T08:25:35;14.50;99.90
64715;DHT22;51144;53.002;6.506;2022-10-16T08:28:04;14.50;99.90
64715;DHT22;51144;53.002;6.506;2022-10-16T08:30:31;14.70;99.90
64715;DHT22;51144;53.002;6.506;2022-10-16T08:32:56;15.10;99.90
64715;DHT22;51144;53.002;6.506;2022-10-16T08:35:23;15.50;99.90
64715;DHT22;51144;53.002;6.506;2022-10-16T08:37:49;15.50;99.90
64715;DHT22;51144;53.002;6.506;2022-10-16T08:48:30;15.00;99.90
64715;DHT22;51144;53.002;6.506;2022-10-16T08:51:02;15.40;99.90
64715;DHT22;51144;53.002;6.506;2022-10-16T08:53:38;15.70;99.90
64715;DHT22;51144;53.002;6.506;2022-10-16T08:56:07;15.90;99.90
64715;DHT22;51144;53.002;6.506;2022-10-16T08:58:33;16.10;99.90
64715;DHT22;51144;53.002;6.506;2022-10-16T09:01:01;16.50;99.90
64715;DHT22;51144;53.002;6.506;2022-10-16T09:06:21;17.20;99.90
64715;DHT22;51144;53.002;6.506;2022-10-16T09:17:39;17.40;99.90
64715;DHT22;51144;53.002;6.506;2022-10-16T09:22:35;17.90;99.90
64715;DHT22;51144;53.002;6.506;2022-10-16T09:25:11;18.00;99.90
64715;DHT22;51144;53.002;6.506;2022-10-16T09:27:37;18.30;99.90
64715;DHT22;51144;53.002;6.506;2022-10-16T09:30:17;18.50;99.90
64715;DHT22;51144;53.002;6.506;2022-10-16T09:32:44;18.80;99.90
64715;DHT22;51144;53.002;6.506;2022-10-16T09:35:37;18.80;99.90
64715;DHT22;51144;53.002;6.506;2022-10-16T09:38:01;18.60;99.90
64715;DHT22;51144;53.002;6.506;2022-10-16T09:43:23;19.00;99.90
64715;DHT22;51144;53.002;6.506;2022-10-16T09:46:02;19.00;99.90
64715;DHT22;51144;53.002;6.506;2022-10-16T09:48:35;19.00;99.90
64715;DHT22;51144;53.002;6.506;2022-10-16T09:51:03;18.70;99.90
64715;DHT22;51144;53.002;6.506;2022-10-16T09:53:46;18.30;99.90
64715;DHT22;51144;53.002;6.506;2022-10-16T09:56:21;18.00;99.90
64715;DHT22;51144;53.002;6.506;2022-10-16T09:58:57;17.80;99.90
64715;DHT22;51144;53.002;6.506;2022-10-16T10:01:37;17.60;99.90
64715;DHT22;51144;53.002;6.506;2022-10-16T10:04:03;17.80;99.90
64715;DHT22;51144;53.002;6.506;2022-10-16T10:06:35;17.80;99.90
64715;DHT22;51144;53.002;6.506;2022-10-16T10:09:13;17.90;99.90
64715;DHT22;51144;53.002;6.506;2022-10-16T10:14:21;18.00;99.90
64715;DHT22;51144;53.002;6.506;2022-10-16T10:16:48;18.20;99.90
64715;DHT22;51144;53.002;6.506;2022-10-16T10:19:16;18.60;99.90
64715;DHT22;51144;53.002;6.506;2022-10-16T10:21:42;18.60;99.90
64715;DHT22;51144;53.002;6.506;2022-10-16T10:24:17;18.50;99.90
64715;DHT22;51144;53.002;6.506;2022-10-16T10:27:12;18.80;99.90
64715;DHT22;51144;53.002;6.506;2022-10-16T10:30:01;18.90;99.90
64715;DHT22;51144;53.002;6.506;2022-10-16T10:32:46;19.00;99.90
64715;DHT22;51144;53.002;6.506;2022-10-16T10:35:24;19.00;99.90
64715;DHT22;51144;53.002;6.506;2022-10-16T10:40:30;18.90;99.90
64715;DHT22;51144;53.002;6.506;2022-10-16T10:43:04;18.90;99.90
64715;DHT22;51144;53.002;6.506;2022-10-16T10:50:58;18.70;99.90
64715;DHT22;51144;53.002;6.506;2022-10-16T11:01:58;19.20;99.90
64715;DHT22;51144;53.002;6.506;2022-10-16T11:04:39;19.00;99.90
64715;DHT22;51144;53.002;6.506;2022-10-16T11:07:32;18.90;99.90
64715;DHT22;51144;53.002;6.506;2022-10-16T11:10:15;19.10;99.90
64715;DHT22;51144;53.002;6.506;2022-10-16T11:12:45;19.50;99.90
64715;DHT22;51144;53.002;6.506;2022-10-16T11:15:25;19.50;99.90
64715;DHT22;51144;53.002;6.506;2022-10-16T11:18:15;19.70;99.90
64715;DHT22;51144;53.002;6.506;2022-10-16T11:20:52;20.10;99.90
64715;DHT22;51144;53.002;6.506;2022-10-16T11:23:31;20.40;99.90
64715;DHT22;51144;53.002;6.506;2022-10-16T11:26:05;20.50;99.90
64715;DHT22;51144;53.002;6.506;2022-10-16T11:28:40;20.60;99.90
64715;DHT22;51144;53.002;6.506;2022-10-16T11:31:16;20.70;99.90
64715;DHT22;51144;53.002;6.506;2022-10-16T11:33:47;20.70;99.90
64715;DHT22;51144;53.002;6.506;2022-10-16T11:36:43;20.90;99.90
64715;DHT22;51144;53.002;6.506;2022-10-16T11:41:54;21.50;99.90
64715;DHT22;51144;53.002;6.506;2022-10-16T11:44:42;21.50;99.90
64715;DHT22;51144;53.002;6.506;2022-10-16T11:47:19;21.40;99.90
64715;DHT22;51144;53.002;6.506;2022-10-16T11:49:51;21.00;99.90
64715;DHT22;51144;53.002;6.506;2022-10-16T11:52:36;21.00;99.90
64715;DHT22;51144;53.002;6.506;2022-10-16T11:55:14;20.90;99.90
64715;DHT22;51144;53.002;6.506;2022-10-16T11:57:57;21.10;99.90
64715;DHT22;51144;53.002;6.506;2022-10-16T12:00:28;21.40;99.90
64715;DHT22;51144;53.002;6.506;2022-10-16T12:03:14;21.70;99.90
64715;DHT22;51144;53.002;6.506;2022-10-16T12:08:16;22.20;99.90
64715;DHT22;51144;53.002;6.506;2022-10-16T12:10:44;22.50;99.90
64715;DHT22;51144;53.002;6.506;2022-10-16T12:13:46;22.40;99.50
64715;DHT22;51144;53.002;6.506;2022-10-16T12:18:48;22.20;99.50
64715;DHT22;51144;53.002;6.506;2022-10-16T12:21:15;22.00;99.20
64715;DHT22;51144;53.002;6.506;2022-10-16T12:23:55;22.10;99.40
64715;DHT22;51144;53.002;6.506;2022-10-16T12:26:27;22.30;99.00
64715;DHT22;51144;53.002;6.506;2022-10-16T12:28:54;22.10;98.10
64715;DHT22;51144;53.002;6.506;2022-10-16T12:31:21;22.30;99.10
64715;DHT22;51144;53.002;6.506;2022-10-16T12:34:02;22.40;98.20
64715;DHT22;51144;53.002;6.506;2022-10-16T12:36:33;21.80;98.50
64715;DHT22;51144;53.002;6.506;2022-10-16T12:39:00;21.20;98.60
64715;DHT22;51144;53.002;6.506;2022-10-16T12:41:30;20.70;99.40
64715;DHT22;51144;53.002;6.506;2022-10-16T12:43:57;20.50;99.20
64715;DHT22;51144;53.002;6.506;2022-10-16T12:49:50;19.60;99.90
64715;DHT22;51144;53.002;6.506;2022-10-16T12:51:51;19.70;99.90
64715;DHT22;51144;53.002;6.506;2022-10-16T13:11:20;21.40;98.60
64715;DHT22;51144;53.002;6.506;2022-10-16T13:14:00;21.20;97.80
64715;DHT22;51144;53.002;6.506;2022-10-16T13:29:45;20.00;99.90
64715;DHT22;51144;53.002;6.506;2022-10-16T13:32:17;19.70;99.90
64715;DHT22;51144;53.002;6.506;2022-10-16T13:34:47;19.60;99.10
64715;DHT22;51144;53.002;6.506;2022-10-16T13:37:32;19.40;99.60
64715;DHT22;51144;53.002;6.506;2022-10-16T13:40:19;19.40;99.90
64715;DHT22;51144;53.002;6.506;2022-10-16T13:42:45;19.40;99.90
64715;DHT22;51144;53.002;6.506;2022-10-16T13:45:23;19.40;99.70
64715;DHT22;51144;53.002;6.506;2022-10-16T13:48:00;19.20;99.90
64715;DHT22;51144;53.002;6.506;2022-10-16T13:50:26;19.20;99.90
64715;DHT22;51144;53.002;6.506;2022-10-16T13:52:52;19.00;99.90
64715;DHT22;51144;53.002;6.506;2022-10-16T13:55:28;19.00;99.90
64715;DHT22;51144;53.002;6.506;2022-10-16T13:58:07;19.00;99.90
64715;DHT22;51144;53.002;6.506;2022-10-16T14:00:33;19.00;99.90
64715;DHT22;51144;53.002;6.506;2022-10-16T14:03:07;19.00;99.90
64715;DHT22;51144;53.002;6.506;2022-10-16T14:05:49;18.90;99.90
64715;DHT22;51144;53.002;6.506;2022-10-16T14:08:15;18.90;99.90
64715;DHT22;51144;53.002;6.506;2022-10-16T14:10:41;18.80;99.90
64715;DHT22;51144;53.002;6.506;2022-10-16T14:13:15;18.90;99.90
64715;DHT22;51144;53.002;6.506;2022-10-16T14:15:46;18.80;99.90
64715;DHT22;51144;53.002;6.506;2022-10-16T14:18:21;18.80;99.90
64715;DHT22;51144;53.002;6.506;2022-10-16T14:20:49;18.80;99.90
64715;DHT22;51144;53.002;6.506;2022-10-16T14:23:32;18.70;99.90
64715;DHT22;51144;53.002;6.506;2022-10-16T14:26:26;18.70;99.90
64715;DHT22;51144;53.002;6.506;2022-10-16T14:29:12;18.60;99.90
64715;DHT22;51144;53.002;6.506;2022-10-16T14:31:38;18.40;99.90
64715;DHT22;51144;53.002;6.506;2022-10-16T14:34:30;18.40;99.90
64715;DHT22;51144;53.002;6.506;2022-10-16T14:37:09;18.30;99.90
64715;DHT22;51144;53.002;6.506;2022-10-16T14:39:36;18.30;99.90
64715;DHT22;51144;53.002;6.506;2022-10-16T14:42:01;18.30;99.90
64715;DHT22;51144;53.002;6.506;2022-10-16T14:44:32;18.30;99.90
64715;DHT22;51144;53.002;6.506;2022-10-16T14:47:06;18.30;99.90
64715;DHT22;51144;53.002;6.506;2022-10-16T14:49:32;18.20;99.90
64715;DHT22;51144;53.002;6.506;2022-10-16T14:51:58;18.20;99.90
64715;DHT22;51144;53.002;6.506;2022-10-16T14:54:24;18.10;99.90
64715;DHT22;51144;53.002;6.506;2022-10-16T14:56:57;18.10;99.90
64715;DHT22;51144;53.002;6.506;2022-10-16T14:59:39;18.00;99.90
64715;DHT22;51144;53.002;6.506;2022-10-16T15:04:48;18.00;99.90
64715;DHT22;51144;53.002;6.506;2022-10-16T15:07:14;17.90;99.90
64715;DHT22;51144;53.002;6.506;2022-10-16T15:09:39;17.90;99.90
64715;DHT22;51144;53.002;6.506;2022-10-16T15:12:05;17.80;99.90
64715;DHT22;51144;53.002;6.506;2022-10-16T15:14:31;17.80;99.90
64715;DHT22;51144;53.002;6.506;2022-10-16T15:16:56;17.80;99.90
64715;DHT22;51144;53.002;6.506;2022-10-16T15:19:22;17.70;99.90
64715;DHT22;51144;53.002;6.506;2022-10-16T15:21:48;17.70;99.90
64715;DHT22;51144;53.002;6.506;2022-10-16T15:24:15;17.60;99.90
64715;DHT22;51144;53.002;6.506;2022-10-16T15:26:41;17.60;99.90
64715;DHT22;51144;53.002;6.506;2022-10-16T15:29:07;17.60;99.90
64715;DHT22;51144;53.002;6.506;2022-10-16T15:31:33;17.60;99.90
64715;DHT22;51144;53.002;6.506;2022-10-16T15:33:59;17.50;99.90
64715;DHT22;51144;53.002;6.506;2022-10-16T15:36:31;17.40;99.90
64715;DHT22;51144;53.002;6.506;2022-10-16T15:38:59;17.40;99.90
64715;DHT22;51144;53.002;6.506;2022-10-16T15:41:25;17.40;99.90
64715;DHT22;51144;53.002;6.506;2022-10-16T15:43:51;17.30;99.90
64715;DHT22;51144;53.002;6.506;2022-10-16T15:46:19;17.20;99.90
64715;DHT22;51144;53.002;6.506;2022-10-16T15:48:46;17.20;99.90
64715;DHT22;51144;53.002;6.506;2022-10-16T15:51:12;17.10;99.90
64715;DHT22;51144;53.002;6.506;2022-10-16T15:53:38;17.00;99.90
64715;DHT22;51144;53.002;6.506;2022-10-16T15:56:04;17.00;99.90
64715;DHT22;51144;53.002;6.506;2022-10-16T15:58:30;17.00;99.90
64715;DHT22;51144;53.002;6.506;2022-10-16T16:00:57;17.00;99.90
64715;DHT22;51144;53.002;6.506;2022-10-16T16:03:25;16.90;99.90
64715;DHT22;51144;53.002;6.506;2022-10-16T16:05:51;17.00;99.90
64715;DHT22;51144;53.002;6.506;2022-10-16T16:08:17;16.90;99.90
64715;DHT22;51144;53.002;6.506;2022-10-16T16:10:42;16.80;99.90
64715;DHT22;51144;53.002;6.506;2022-10-16T16:13:08;16.70;99.90
64715;DHT22;51144;53.002;6.506;2022-10-16T16:15:34;16.70;99.90
64715;DHT22;51144;53.002;6.506;2022-10-16T16:17:59;16.70;99.90
64715;DHT22;51144;53.002;6.506;2022-10-16T16:20:27;16.60;99.90
64715;DHT22;51144;53.002;6.506;2022-10-16T16:22:53;16.60;99.90
64715;DHT22;51144;53.002;6.506;2022-10-16T16:25:18;16.50;99.90
64715;DHT22;51144;53.002;6.506;2022-10-16T16:27:44;16.30;99.90
64715;DHT22;51144;53.002;6.506;2022-10-16T16:30:11;16.20;99.90
64715;DHT22;51144;53.002;6.506;2022-10-16T16:32:36;16.10;99.90
64715;DHT22;51144;53.002;6.506;2022-10-16T16:35:03;16.00;99.90
64715;DHT22;51144;53.002;6.506;2022-10-16T16:37:29;15.90;99.90
64715;DHT22;51144;53.002;6.506;2022-10-16T16:39:55;15.80;99.90
64715;DHT22;51144;53.002;6.506;2022-10-16T16:42:24;15.70;99.90
64715;DHT22;51144;53.002;6.506;2022-10-16T16:44:50;15.60;99.90
64715;DHT22;51144;53.002;6.506;2022-10-16T16:47:16;15.50;99.90
64715;DHT22;51144;53.002;6.506;2022-10-16T16:49:42;15.40;99.90
64715;DHT22;51144;53.002;6.506;2022-10-16T16:52:07;15.40;99.90
64715;DHT22;51144;53.002;6.506;2022-10-16T16:54:33;15.30;99.90
64715;DHT22;51144;53.002;6.506;2022-10-16T16:56:58;15.20;99.90
64715;DHT22;51144;53.002;6.506;2022-10-16T16:59:24;15.10;99.90
64715;DHT22;51144;53.002;6.506;2022-10-16T17:01:50;15.00;99.90
64715;DHT22;51144;53.002;6.506;2022-10-16T17:04:16;14.90;99.90
64715;DHT22;51144;53.002;6.506;2022-10-16T17:06:42;14.90;99.90
64715;DHT22;51144;53.002;6.506;2022-10-16T17:09:09;14.80;99.90
64715;DHT22;51144;53.002;6.506;2022-10-16T17:11:38;14.80;99.90
64715;DHT22;51144;53.002;6.506;2022-10-16T17:14:04;14.70;99.90
64715;DHT22;51144;53.002;6.506;2022-10-16T17:16:34;14.60;99.90
64715;DHT22;51144;53.002;6.506;2022-10-16T17:19:02;14.50;99.90